sensor_id;sensor_type;location;lat;lon;timestamp;temperature;humidity
52459;DHT22;38372;52.902;6.024;2023-02-10T00:01:10;1.70;99.90
52459;DHT22;38372;52.902;6.024;2023-02-10T00:03:36;1.60;99.90
52459;DHT22;38372;52.902;6.024;2023-02-10T00:06:03;1.60;99.90
52459;DHT22;38372;52.902;6.024;2023-02-10T00:08:29;1.50;99.90
52459;DHT22;38372;52.902;6.024;2023-02-10T00:11:04;1.50;99.90
52459;DHT22;38372;52.902;6.024;2023-02-10T00:13:31;1.50;99.90
52459;DHT22;38372;52.902;6.024;2023-02-10T00:15:57;1.50;99.90
52459;DHT22;38372;52.902;6.024;2023-02-10T00:18:24;1.50;99.90
52459;DHT22;38372;52.902;6.024;2023-02-10T00:20:50;1.40;99.90
52459;DHT22;38372;52.902;6.024;2023-02-10T00:23:16;1.40;99.90
52459;DHT22;38372;52.902;6.024;2023-02-10T00:25:41;1.40;99.90
52459;DHT22;38372;52.902;6.024;2023-02-10T00:28:07;1.40;99.90
52459;DHT22;38372;52.902;6.024;2023-02-10T00:30:34;1.40;99.90
52459;DHT22;38372;52.902;6.024;2023-02-10T00:32:59;1.40;99.90
52459;DHT22;38372;52.902;6.024;2023-02-10T00:35:25;1.40;99.90
52459;DHT22;38372;52.902;6.024;2023-02-10T00:37:51;1.40;99.90
52459;DHT22;38372;52.902;6.024;2023-02-10T00:40:17;1.30;99.90
52459;DHT22;38372;52.902;6.024;2023-02-10T00:42:43;1.30;99.90
52459;DHT22;38372;52.902;6.024;2023-02-10T00:45:09;1.30;99.90
52459;DHT22;38372;52.902;6.024;2023-02-10T00:47:35;1.30;99.90
52459;DHT22;38372;52.902;6.024;2023-02-10T00:50:01;1.20;99.90
52459;DHT22;38372;52.902;6.024;2023-02-10T00:52:26;1.20;99.90
52459;DHT22;38372;52.902;6.024;2023-02-10T00:54:52;1.20;99.90
52459;DHT22;38372;52.902;6.024;2023-02-10T00:57:18;1.30;99.90
52459;DHT22;38372;52.902;6.024;2023-02-10T00:59:44;1.20;99.90
52459;DHT22;38372;52.902;6.024;2023-02-10T01:02:09;1.20;99.90
52459;DHT22;38372;52.902;6.024;2023-02-10T01:04:36;1.10;99.90
52459;DHT22;38372;52.902;6.024;2023-02-10T01:07:02;1.10;99.90
52459;DHT22;38372;52.902;6.024;2023-02-10T01:09:28;1.10;99.90
52459;DHT22;38372;52.902;6.024;2023-02-10T01:11:53;1.00;99.90
52459;DHT22;38372;52.902;6.024;2023-02-10T01:14:19;1.00;99.90
52459;DHT22;38372;52.902;6.024;2023-02-10T01:16:45;1.00;99.90
52459;DHT22;38372;52.902;6.024;2023-02-10T01:19:11;0.90;99.90
52459;DHT22;38372;52.902;6.024;2023-02-10T01:21:37;0.90;99.90
52459;DHT22;38372;52.902;6.024;2023-02-10T01:24:05;0.80;99.90
52459;DHT22;38372;52.902;6.024;2023-02-10T01:26:31;0.80;99.90
52459;DHT22;38372;52.902;6.024;2023-02-10T01:28:57;0.80;99.90
52459;DHT22;38372;52.902;6.024;2023-02-10T01:31:24;0.70;99.90
52459;DHT22;38372;52.902;6.024;2023-02-10T01:33:51;0.70;99.90
52459;DHT22;38372;52.902;6.024;2023-02-10T01:36:19;0.60;99.90
52459;DHT22;38372;52.902;6.024;2023-02-10T01:38:45;0.60;99.90
52459;DHT22;38372;52.902;6.024;2023-02-10T01:41:13;0.60;99.90
52459;DHT22;38372;52.902;6.024;2023-02-10T01:46:44;0.60;99.90
52459;DHT22;38372;52.902;6.024;2023-02-10T01:49:13;0.60;99.90
52459;DHT22;38372;52.902;6.024;2023-02-10T01:51:48;0.60;99.90
52459;DHT22;38372;52.902;6.024;2023-02-10T01:54:24;0.60;99.90
52459;DHT22;38372;52.902;6.024;2023-02-10T01:56:50;0.70;99.90
52459;DHT22;38372;52.902;6.024;2023-02-10T01:59:18;0.70;99.90
52459;DHT22;38372;52.902;6.024;2023-02-10T02:01:45;0.70;99.90
52459;DHT22;38372;52.902;6.024;2023-02-10T02:04:11;0.70;99.90
52459;DHT22;38372;52.902;6.024;2023-02-10T02:06:37;0.70;99.90
52459;DHT22;38372;52.902;6.024;2023-02-10T02:09:04;0.80;99.90
52459;DHT22;38372;52.902;6.024;2023-02-10T02:11:46;0.80;99.90
52459;DHT22;38372;52.902;6.024;2023-02-10T02:14:25;0.90;99.90
52459;DHT22;38372;52.902;6.024;2023-02-10T02:22:20;1.00;99.90
52459;DHT22;38372;52.902;6.024;2023-02-10T02:33:19;1.10;99.90
52459;DHT22;38372;52.902;6.024;2023-02-10T02:36:04;1.10;99.90
52459;DHT22;38372;52.902;6.024;2023-02-10T02:38:42;1.10;99.90
52459;DHT22;38372;52.902;6.024;2023-02-10T02:41:09;1.10;99.90
52459;DHT22;38372;52.902;6.024;2023-02-10T02:43:35;1.10;99.90
52459;DHT22;38372;52.902;6.024;2023-02-10T02:46:34;1.20;99.90
52459;DHT22;38372;52.902;6.024;2023-02-10T02:51:59;1.10;99.90
52459;DHT22;38372;52.902;6.024;2023-02-10T02:56:58;1.10;99.90
52459;DHT22;38372;52.902;6.024;2023-02-10T03:02:07;1.10;99.90
52459;DHT22;38372;52.902;6.024;2023-02-10T03:04:34;1.10;99.90
52459;DHT22;38372;52.902;6.024;2023-02-10T03:07:02;1.10;99.90
52459;DHT22;38372;52.902;6.024;2023-02-10T03:09:28;1.10;99.90
52459;DHT22;38372;52.902;6.024;2023-02-10T03:11:54;1.10;99.90
52459;DHT22;38372;52.902;6.024;2023-02-10T03:14:20;1.10;99.90
52459;DHT22;38372;52.902;6.024;2023-02-10T03:16:47;1.10;99.90
52459;DHT22;38372;52.902;6.024;2023-02-10T03:19:13;1.10;99.90
52459;DHT22;38372;52.902;6.024;2023-02-10T03:21:39;1.10;99.90
52459;DHT22;38372;52.902;6.024;2023-02-10T03:24:05;1.10;99.90
52459;DHT22;38372;52.902;6.024;2023-02-10T03:26:31;1.10;99.90
52459;DHT22;38372;52.902;6.024;2023-02-10T03:28:57;1.10;99.90
52459;DHT22;38372;52.902;6.024;2023-02-10T03:31:22;1.10;99.90
52459;DHT22;38372;52.902;6.024;2023-02-10T03:33:49;1.10;99.90
52459;DHT22;38372;52.902;6.024;2023-02-10T03:36:15;1.10;99.90
52459;DHT22;38372;52.902;6.024;2023-02-10T03:38:41;1.10;99.90
52459;DHT22;38372;52.902;6.024;2023-02-10T03:41:06;1.10;99.90
52459;DHT22;38372;52.902;6.024;2023-02-10T03:43:32;1.10;99.90
52459;DHT22;38372;52.902;6.024;2023-02-10T03:46:02;1.10;99.90
52459;DHT22;38372;52.902;6.024;2023-02-10T03:48:28;1.10;99.90
52459;DHT22;38372;52.902;6.024;2023-02-10T03:51:01;1.10;99.90
52459;DHT22;38372;52.902;6.024;2023-02-10T03:53:28;1.10;99.90
52459;DHT22;38372;52.902;6.024;2023-02-10T03:55:54;1.10;99.90
52459;DHT22;38372;52.902;6.024;2023-02-10T03:58:20;1.00;99.90
52459;DHT22;38372;52.902;6.024;2023-02-10T04:00:46;1.00;99.90
52459;DHT22;38372;52.902;6.024;2023-02-10T04:03:12;0.90;99.90
52459;DHT22;38372;52.902;6.024;2023-02-10T04:05:38;0.90;99.90
52459;DHT22;38372;52.902;6.024;2023-02-10T04:08:04;0.80;99.90
52459;DHT22;38372;52.902;6.024;2023-02-10T04:10:30;0.80;99.90
52459;DHT22;38372;52.902;6.024;2023-02-10T04:12:56;0.80;99.90
52459;DHT22;38372;52.902;6.024;2023-02-10T04:15:22;0.70;99.90
52459;DHT22;38372;52.902;6.024;2023-02-10T04:17:48;0.70;99.90
52459;DHT22;38372;52.902;6.024;2023-02-10T04:20:14;0.70;99.90
52459;DHT22;38372;52.902;6.024;2023-02-10T04:22:40;0.70;99.90
52459;DHT22;38372;52.902;6.024;2023-02-10T04:25:07;0.70;99.90
52459;DHT22;38372;52.902;6.024;2023-02-10T04:27:33;0.70;99.90
52459;DHT22;38372;52.902;6.024;2023-02-10T04:29:59;0.70;99.90
52459;DHT22;38372;52.902;6.024;2023-02-10T04:32:25;0.70;99.90
52459;DHT22;38372;52.902;6.024;2023-02-10T04:34:51;0.70;99.90
52459;DHT22;38372;52.902;6.024;2023-02-10T04:37:17;0.70;99.90
52459;DHT22;38372;52.902;6.024;2023-02-10T04:39:43;0.80;99.90
52459;DHT22;38372;52.902;6.024;2023-02-10T04:42:09;0.80;99.90
52459;DHT22;38372;52.902;6.024;2023-02-10T04:44:35;0.90;99.90
52459;DHT22;38372;52.902;6.024;2023-02-10T04:47:00;0.90;99.90
52459;DHT22;38372;52.902;6.024;2023-02-10T04:49:26;0.90;99.90
52459;DHT22;38372;52.902;6.024;2023-02-10T04:51:52;1.00;99.90
52459;DHT22;38372;52.902;6.024;2023-02-10T04:54:18;1.00;99.90
52459;DHT22;38372;52.902;6.024;2023-02-10T04:56:44;1.10;99.90
52459;DHT22;38372;52.902;6.024;2023-02-10T04:59:10;1.10;99.90
52459;DHT22;38372;52.902;6.024;2023-02-10T05:01:36;1.20;99.90
52459;DHT22;38372;52.902;6.024;2023-02-10T05:04:02;1.20;99.90
52459;DHT22;38372;52.902;6.024;2023-02-10T05:06:28;1.20;99.90
52459;DHT22;38372;52.902;6.024;2023-02-10T05:08:53;1.20;99.90
52459;DHT22;38372;52.902;6.024;2023-02-10T05:11:19;1.30;99.90
52459;DHT22;38372;52.902;6.024;2023-02-10T05:13:45;1.30;99.90
52459;DHT22;38372;52.902;6.024;2023-02-10T05:16:12;1.20;99.90
52459;DHT22;38372;52.902;6.024;2023-02-10T05:18:38;1.30;99.90
52459;DHT22;38372;52.902;6.024;2023-02-10T05:21:08;1.30;99.90
52459;DHT22;38372;52.902;6.024;2023-02-10T05:23:35;1.30;99.90
52459;DHT22;38372;52.902;6.024;2023-02-10T05:26:01;1.40;99.90
52459;DHT22;38372;52.902;6.024;2023-02-10T05:28:27;1.40;99.90
52459;DHT22;38372;52.902;6.024;2023-02-10T05:30:53;1.40;99.90
52459;DHT22;38372;52.902;6.024;2023-02-10T05:33:19;1.50;99.90
52459;DHT22;38372;52.902;6.024;2023-02-10T05:35:45;1.50;99.90
52459;DHT22;38372;52.902;6.024;2023-02-10T05:38:11;1.50;99.90
52459;DHT22;38372;52.902;6.024;2023-02-10T05:40:37;1.50;99.90
52459;DHT22;38372;52.902;6.024;2023-02-10T05:43:03;1.50;99.90
52459;DHT22;38372;52.902;6.024;2023-02-10T05:45:29;1.50;99.90
52459;DHT22;38372;52.902;6.024;2023-02-10T05:47:55;1.60;99.90
52459;DHT22;38372;52.902;6.024;2023-02-10T05:50:21;1.60;99.90
52459;DHT22;38372;52.902;6.024;2023-02-10T05:52:46;1.60;99.90
52459;DHT22;38372;52.902;6.024;2023-02-10T05:55:12;1.60;99.90
52459;DHT22;38372;52.902;6.024;2023-02-10T05:57:38;1.60;99.90
52459;DHT22;38372;52.902;6.024;2023-02-10T06:00:05;1.70;99.90
52459;DHT22;38372;52.902;6.024;2023-02-10T06:02:31;1.60;99.90
52459;DHT22;38372;52.902;6.024;2023-02-10T06:04:57;1.70;99.90
52459;DHT22;38372;52.902;6.024;2023-02-10T06:07:23;1.70;99.90
52459;DHT22;38372;52.902;6.024;2023-02-10T06:09:49;1.70;99.90
52459;DHT22;38372;52.902;6.024;2023-02-10T06:12:14;1.70;99.90
52459;DHT22;38372;52.902;6.024;2023-02-10T06:14:41;1.70;99.90
52459;DHT22;38372;52.902;6.024;2023-02-10T06:17:07;1.80;99.90
52459;DHT22;38372;52.902;6.024;2023-02-10T06:19:37;1.70;99.90
52459;DHT22;38372;52.902;6.024;2023-02-10T06:22:03;1.70;99.90
52459;DHT22;38372;52.902;6.024;2023-02-10T06:24:29;1.70;99.90
52459;DHT22;38372;52.902;6.024;2023-02-10T06:26:55;1.70;99.90
52459;DHT22;38372;52.902;6.024;2023-02-10T06:29:21;1.70;99.90
52459;DHT22;38372;52.902;6.024;2023-02-10T06:31:47;1.70;99.90
52459;DHT22;38372;52.902;6.024;2023-02-10T06:34:13;1.70;99.90
52459;DHT22;38372;52.902;6.024;2023-02-10T06:36:39;1.60;99.90
52459;DHT22;38372;52.902;6.024;2023-02-10T06:39:05;1.50;99.90
52459;DHT22;38372;52.902;6.024;2023-02-10T06:41:31;1.50;99.90
52459;DHT22;38372;52.902;6.024;2023-02-10T06:43:57;1.50;99.90
52459;DHT22;38372;52.902;6.024;2023-02-10T06:46:23;1.50;99.90
52459;DHT22;38372;52.902;6.024;2023-02-10T06:48:49;1.50;99.90
52459;DHT22;38372;52.902;6.024;2023-02-10T06:51:15;1.60;99.90
52459;DHT22;38372;52.902;6.024;2023-02-10T06:53:41;1.60;99.90
52459;DHT22;38372;52.902;6.024;2023-02-10T06:56:08;1.60;99.90
52459;DHT22;38372;52.902;6.024;2023-02-10T06:58:34;1.60;99.90
52459;DHT22;38372;52.902;6.024;2023-02-10T07:01:00;1.60;99.90
52459;DHT22;38372;52.902;6.024;2023-02-10T07:03:31;1.60;99.90
52459;DHT22;38372;52.902;6.024;2023-02-10T07:05:56;1.60;99.90
52459;DHT22;38372;52.902;6.024;2023-02-10T07:08:22;1.60;99.90
52459;DHT22;38372;52.902;6.024;2023-02-10T07:10:48;1.60;99.90
52459;DHT22;38372;52.902;6.024;2023-02-10T07:13:14;1.60;99.90
52459;DHT22;38372;52.902;6.024;2023-02-10T07:15:40;1.60;99.90
52459;DHT22;38372;52.902;6.024;2023-02-10T07:18:07;1.60;99.90
52459;DHT22;38372;52.902;6.024;2023-02-10T07:20:33;1.60;99.90
52459;DHT22;38372;52.902;6.024;2023-02-10T07:22:59;1.60;99.90
52459;DHT22;38372;52.902;6.024;2023-02-10T07:25:25;1.60;99.90
52459;DHT22;38372;52.902;6.024;2023-02-10T07:27:51;1.70;99.90
52459;DHT22;38372;52.902;6.024;2023-02-10T07:30:17;1.70;99.90
52459;DHT22;38372;52.902;6.024;2023-02-10T07:32:43;1.70;99.90
52459;DHT22;38372;52.902;6.024;2023-02-10T07:35:11;1.70;99.90
52459;DHT22;38372;52.902;6.024;2023-02-10T07:37:37;1.70;99.90
52459;DHT22;38372;52.902;6.024;2023-02-10T07:40:04;1.80;99.90
52459;DHT22;38372;52.902;6.024;2023-02-10T07:42:30;1.80;99.90
52459;DHT22;38372;52.902;6.024;2023-02-10T07:44:57;1.80;99.90
52459;DHT22;38372;52.902;6.024;2023-02-10T07:47:23;1.80;99.90
52459;DHT22;38372;52.902;6.024;2023-02-10T07:49:49;1.80;99.90
52459;DHT22;38372;52.902;6.024;2023-02-10T07:52:16;1.90;99.90
52459;DHT22;38372;52.902;6.024;2023-02-10T07:54:42;1.90;99.90
52459;DHT22;38372;52.902;6.024;2023-02-10T07:57:08;1.90;99.90
52459;DHT22;38372;52.902;6.024;2023-02-10T07:59:34;2.00;99.90
52459;DHT22;38372;52.902;6.024;2023-02-10T08:01:59;2.10;99.90
52459;DHT22;38372;52.902;6.024;2023-02-10T08:04:25;2.10;99.90
52459;DHT22;38372;52.902;6.024;2023-02-10T08:06:51;2.20;99.90
52459;DHT22;38372;52.902;6.024;2023-02-10T08:09:17;2.30;99.90
52459;DHT22;38372;52.902;6.024;2023-02-10T08:11:43;2.40;99.90
52459;DHT22;38372;52.902;6.024;2023-02-10T08:14:09;2.40;99.90
52459;DHT22;38372;52.902;6.024;2023-02-10T08:16:34;2.60;99.90
52459;DHT22;38372;52.902;6.024;2023-02-10T08:19:00;2.70;99.90
52459;DHT22;38372;52.902;6.024;2023-02-10T08:21:26;2.80;99.90
52459;DHT22;38372;52.902;6.024;2023-02-10T08:23:52;3.00;99.90
52459;DHT22;38372;52.902;6.024;2023-02-10T08:26:20;3.10;99.90
52459;DHT22;38372;52.902;6.024;2023-02-10T08:28:47;3.40;99.90
52459;DHT22;38372;52.902;6.024;2023-02-10T08:31:13;3.70;99.90
52459;DHT22;38372;52.902;6.024;2023-02-10T08:33:39;3.90;99.90
52459;DHT22;38372;52.902;6.024;2023-02-10T08:36:09;3.90;99.90
52459;DHT22;38372;52.902;6.024;2023-02-10T08:38:35;3.90;99.90
52459;DHT22;38372;52.902;6.024;2023-02-10T08:41:01;3.90;99.90
52459;DHT22;38372;52.902;6.024;2023-02-10T08:43:28;3.90;99.90
52459;DHT22;38372;52.902;6.024;2023-02-10T08:45:58;3.90;99.90
52459;DHT22;38372;52.902;6.024;2023-02-10T08:48:25;3.90;99.90
52459;DHT22;38372;52.902;6.024;2023-02-10T08:50:51;3.90;99.90
52459;DHT22;38372;52.902;6.024;2023-02-10T08:53:17;3.90;99.90
52459;DHT22;38372;52.902;6.024;2023-02-10T08:55:43;3.90;99.90
52459;DHT22;38372;52.902;6.024;2023-02-10T08:58:09;4.00;99.90
52459;DHT22;38372;52.902;6.024;2023-02-10T09:00:35;4.10;99.90
52459;DHT22;38372;52.902;6.024;2023-02-10T09:03:01;4.10;99.90
52459;DHT22;38372;52.902;6.024;2023-02-10T09:05:27;4.10;99.90
52459;DHT22;38372;52.902;6.024;2023-02-10T09:07:53;4.00;99.90
52459;DHT22;38372;52.902;6.024;2023-02-10T09:10:19;4.00;99.90
52459;DHT22;38372;52.902;6.024;2023-02-10T09:12:45;4.00;99.90
52459;DHT22;38372;52.902;6.024;2023-02-10T09:15:10;3.90;99.90
52459;DHT22;38372;52.902;6.024;2023-02-10T09:17:37;4.00;99.90
52459;DHT22;38372;52.902;6.024;2023-02-10T09:20:03;4.40;99.90
52459;DHT22;38372;52.902;6.024;2023-02-10T09:22:29;5.30;99.90
52459;DHT22;38372;52.902;6.024;2023-02-10T09:24:54;6.20;99.90
52459;DHT22;38372;52.902;6.024;2023-02-10T09:27:20;7.10;99.90
52459;DHT22;38372;52.902;6.024;2023-02-10T09:29:47;7.90;99.90
52459;DHT22;38372;52.902;6.024;2023-02-10T09:32:13;8.70;99.90
52459;DHT22;38372;52.902;6.024;2023-02-10T09:34:40;9.30;99.90
52459;DHT22;38372;52.902;6.024;2023-02-10T09:37:06;9.60;99.90
52459;DHT22;38372;52.902;6.024;2023-02-10T09:39:32;9.60;99.90
52459;DHT22;38372;52.902;6.024;2023-02-10T09:42:17;9.80;99.90
52459;DHT22;38372;52.902;6.024;2023-02-10T09:44:55;10.30;99.90
52459;DHT22;38372;52.902;6.024;2023-02-10T09:55:45;11.90;99.90
52459;DHT22;38372;52.902;6.024;2023-02-10T09:58:36;12.20;99.90
52459;DHT22;38372;52.902;6.024;2023-02-10T10:01:25;12.20;99.90
52459;DHT22;38372;52.902;6.024;2023-02-10T10:03:59;12.20;99.90
52459;DHT22;38372;52.902;6.024;2023-02-10T10:06:35;12.00;99.90
52459;DHT22;38372;52.902;6.024;2023-02-10T10:11:52;11.70;99.90
52459;DHT22;38372;52.902;6.024;2023-02-10T10:22:10;12.70;99.90
52459;DHT22;38372;52.902;6.024;2023-02-10T10:30:44;13.50;99.90
52459;DHT22;38372;52.902;6.024;2023-02-10T10:33:28;13.80;99.90
52459;DHT22;38372;52.902;6.024;2023-02-10T10:35:56;14.00;99.90
52459;DHT22;38372;52.902;6.024;2023-02-10T10:38:32;14.30;99.90
52459;DHT22;38372;52.902;6.024;2023-02-10T10:41:18;14.50;99.90
52459;DHT22;38372;52.902;6.024;2023-02-10T10:43:54;14.90;99.90
52459;DHT22;38372;52.902;6.024;2023-02-10T10:46:38;15.10;99.90
52459;DHT22;38372;52.902;6.024;2023-02-10T10:49:06;15.30;99.90
52459;DHT22;38372;52.902;6.024;2023-02-10T10:51:33;15.30;99.90
52459;DHT22;38372;52.902;6.024;2023-02-10T10:54:01;15.30;99.90
52459;DHT22;38372;52.902;6.024;2023-02-10T10:56:49;15.30;99.90
52459;DHT22;38372;52.902;6.024;2023-02-10T10:59:20;15.00;99.90
52459;DHT22;38372;52.902;6.024;2023-02-10T11:01:48;14.90;99.90
52459;DHT22;38372;52.902;6.024;2023-02-10T11:04:18;14.70;99.90
52459;DHT22;38372;52.902;6.024;2023-02-10T11:06:51;14.10;99.90
52459;DHT22;38372;52.902;6.024;2023-02-10T11:09:26;14.10;99.90
52459;DHT22;38372;52.902;6.024;2023-02-10T11:12:00;14.00;99.90
52459;DHT22;38372;52.902;6.024;2023-02-10T11:14:28;13.90;99.90
52459;DHT22;38372;52.902;6.024;2023-02-10T11:16:58;13.50;99.90
52459;DHT22;38372;52.902;6.024;2023-02-10T11:19:29;13.40;99.90
52459;DHT22;38372;52.902;6.024;2023-02-10T11:21:56;13.40;99.90
52459;DHT22;38372;52.902;6.024;2023-02-10T11:24:31;13.80;99.90
52459;DHT22;38372;52.902;6.024;2023-02-10T11:27:05;13.80;99.90
52459;DHT22;38372;52.902;6.024;2023-02-10T11:29:44;13.80;99.90
52459;DHT22;38372;52.902;6.024;2023-02-10T11:32:19;13.80;99.90
52459;DHT22;38372;52.902;6.024;2023-02-10T11:34:47;13.90;99.90
52459;DHT22;38372;52.902;6.024;2023-02-10T11:37:38;13.90;99.90
52459;DHT22;38372;52.902;6.024;2023-02-10T11:40:17;13.90;99.90
52459;DHT22;38372;52.902;6.024;2023-02-10T11:42:48;13.80;99.90
52459;DHT22;38372;52.902;6.024;2023-02-10T11:45:21;13.60;99.90
52459;DHT22;38372;52.902;6.024;2023-02-10T11:47:47;13.40;99.90
52459;DHT22;38372;52.902;6.024;2023-02-10T11:50:28;12.80;99.90
52459;DHT22;38372;52.902;6.024;2023-02-10T11:52:54;12.50;99.90
52459;DHT22;38372;52.902;6.024;2023-02-10T11:55:21;12.40;99.90
52459;DHT22;38372;52.902;6.024;2023-02-10T11:58:13;12.10;99.90
52459;DHT22;38372;52.902;6.024;2023-02-10T12:09:29;11.80;99.90
52459;DHT22;38372;52.902;6.024;2023-02-10T12:36:52;10.40;99.90
52459;DHT22;38372;52.902;6.024;2023-02-10T12:42:07;10.80;99.90
52459;DHT22;38372;52.902;6.024;2023-02-10T12:44:43;10.70;99.90
52459;DHT22;38372;52.902;6.024;2023-02-10T12:52:13;10.40;99.90
52459;DHT22;38372;52.902;6.024;2023-02-10T12:54:46;10.60;99.90
52459;DHT22;38372;52.902;6.024;2023-02-10T12:57:16;10.60;99.90
52459;DHT22;38372;52.902;6.024;2023-02-10T12:59:49;10.50;99.90
52459;DHT22;38372;52.902;6.024;2023-02-10T13:02:22;10.30;99.90
52459;DHT22;38372;52.902;6.024;2023-02-10T13:04:54;10.40;99.90
52459;DHT22;38372;52.902;6.024;2023-02-10T13:07:36;10.40;99.90
52459;DHT22;38372;52.902;6.024;2023-02-10T13:12:52;10.60;99.90
52459;DHT22;38372;52.902;6.024;2023-02-10T13:17:59;10.40;99.90
52459;DHT22;38372;52.902;6.024;2023-02-10T13:21:00;10.20;99.90
52459;DHT22;38372;52.902;6.024;2023-02-10T13:23:44;10.00;99.90
52459;DHT22;38372;52.902;6.024;2023-02-10T13:26:27;9.80;99.90
52459;DHT22;38372;52.902;6.024;2023-02-10T13:34:59;9.80;99.90
52459;DHT22;38372;52.902;6.024;2023-02-10T13:37:48;9.80;99.90
52459;DHT22;38372;52.902;6.024;2023-02-10T13:40:23;9.80;99.90
52459;DHT22;38372;52.902;6.024;2023-02-10T13:43:03;9.80;99.90
52459;DHT22;38372;52.902;6.024;2023-02-10T13:45:31;9.80;99.90
52459;DHT22;38372;52.902;6.024;2023-02-10T13:53:30;9.70;99.90
52459;DHT22;38372;52.902;6.024;2023-02-10T14:01:37;9.30;99.90
52459;DHT22;38372;52.902;6.024;2023-02-10T14:04:37;9.30;99.90
52459;DHT22;38372;52.902;6.024;2023-02-10T14:12:57;9.20;99.90
52459;DHT22;38372;52.902;6.024;2023-02-10T14:15:30;9.00;99.90
52459;DHT22;38372;52.902;6.024;2023-02-10T14:18:02;9.00;99.90
52459;DHT22;38372;52.902;6.024;2023-02-10T14:20:34;9.10;99.90
52459;DHT22;38372;52.902;6.024;2023-02-10T14:23:01;9.40;99.90
52459;DHT22;38372;52.902;6.024;2023-02-10T14:25:34;9.50;99.90
52459;DHT22;38372;52.902;6.024;2023-02-10T14:28:01;9.30;99.90
52459;DHT22;38372;52.902;6.024;2023-02-10T14:30:43;9.30;99.90
52459;DHT22;38372;52.902;6.024;2023-02-10T14:33:24;9.20;99.90
52459;DHT22;38372;52.902;6.024;2023-02-10T14:35:54;9.10;99.90
52459;DHT22;38372;52.902;6.024;2023-02-10T14:38:23;9.00;99.90
52459;DHT22;38372;52.902;6.024;2023-02-10T14:40:50;9.00;99.90
52459;DHT22;38372;52.902;6.024;2023-02-10T14:43:20;8.90;99.90
52459;DHT22;38372;52.902;6.024;2023-02-10T14:45:47;8.80;99.90
52459;DHT22;38372;52.902;6.024;2023-02-10T14:48:14;8.80;99.90
52459;DHT22;38372;52.902;6.024;2023-02-10T14:50:41;8.80;99.90
52459;DHT22;38372;52.902;6.024;2023-02-10T14:53:17;8.80;99.90
52459;DHT22;38372;52.902;6.024;2023-02-10T14:55:43;8.90;99.90
52459;DHT22;38372;52.902;6.024;2023-02-10T14:58:12;8.70;99.90
52459;DHT22;38372;52.902;6.024;2023-02-10T15:00:41;8.50;99.90
52459;DHT22;38372;52.902;6.024;2023-02-10T15:03:10;8.40;99.90
52459;DHT22;38372;52.902;6.024;2023-02-10T15:05:44;8.30;99.90
52459;DHT22;38372;52.902;6.024;2023-02-10T15:08:26;8.20;99.90
52459;DHT22;38372;52.902;6.024;2023-02-10T15:11:09;8.10;99.90
52459;DHT22;38372;52.902;6.024;2023-02-10T15:14:05;8.00;99.90
52459;DHT22;38372;52.902;6.024;2023-02-10T15:17:15;8.00;99.90
52459;DHT22;38372;52.902;6.024;2023-02-10T15:23:17;7.90;99.90
52459;DHT22;38372;52.902;6.024;2023-02-10T15:28:59;7.80;99.90
52459;DHT22;38372;52.902;6.024;2023-02-10T15:31:40;7.70;99.90
52459;DHT22;38372;52.902;6.024;2023-02-10T15:34:27;7.60;99.90
52459;DHT22;38372;52.902;6.024;2023-02-10T15:37:24;7.60;99.90
52459;DHT22;38372;52.902;6.024;2023-02-10T15:40:25;7.60;99.90
52459;DHT22;38372;52.902;6.024;2023-02-10T15:43:27;7.50;99.90
52459;DHT22;38372;52.902;6.024;2023-02-10T15:46:29;7.40;99.90
52459;DHT22;38372;52.902;6.024;2023-02-10T15:49:15;7.30;99.90
52459;DHT22;38372;52.902;6.024;2023-02-10T15:52:03;7.10;99.90
52459;DHT22;38372;52.902;6.024;2023-02-10T15:54:46;7.10;99.90
52459;DHT22;38372;52.902;6.024;2023-02-10T15:57:33;7.00;99.90
52459;DHT22;38372;52.902;6.024;2023-02-10T16:00:29;7.00;99.90
52459;DHT22;38372;52.902;6.024;2023-02-10T16:03:05;6.90;99.90
52459;DHT22;38372;52.902;6.024;2023-02-10T16:05:36;6.90;99.90
52459;DHT22;38372;52.902;6.024;2023-02-10T16:08:19;6.80;99.90
52459;DHT22;38372;52.902;6.024;2023-02-10T16:10:46;6.80;99.90
52459;DHT22;38372;52.902;6.024;2023-02-10T16:13:15;6.80;99.90
52459;DHT22;38372;52.902;6.024;2023-02-10T16:15:43;6.80;99.90
52459;DHT22;38372;52.902;6.024;2023-02-10T16:18:12;6.70;99.90
52459;DHT22;38372;52.902;6.024;2023-02-10T16:20:39;6.60;99.90
52459;DHT22;38372;52.902;6.024;2023-02-10T16:23:23;6.50;99.90
52459;DHT22;38372;52.902;6.024;2023-02-10T16:25:49;6.50;99.90
52459;DHT22;38372;52.902;6.024;2023-02-10T16:28:17;6.50;99.90
52459;DHT22;38372;52.902;6.024;2023-02-10T16:30:43;6.50;99.90
52459;DHT22;38372;52.902;6.024;2023-02-10T16:33:09;6.50;99.90
52459;DHT22;38372;52.902;6.024;2023-02-10T16:35:36;6.50;99.90
52459;DHT22;38372;52.902;6.024;2023-02-10T16:38:02;6.50;99.90
52459;DHT22;38372;52.902;6.024;2023-02-10T16:40:34;6.60;99.90
52459;DHT22;38372;52.902;6.024;2023-02-10T16:43:01;6.60;99.90
52459;DHT22;38372;52.902;6.024;2023-02-10T16:45:29;6.60;99.90
52459;DHT22;38372;52.902;6.024;2023-02-10T16:47:55;6.60;99.90
52459;DHT22;38372;52.902;6.024;2023-02-10T16:52:59;6.60;99.90
52459;DHT22;38372;52.902;6.024;2023-02-10T16:55:26;6.70;99.90
52459;DHT22;38372;52.902;6.024;2023-02-10T16:57:52;6.70;99.90
52459;DHT22;38372;52.902;6.024;2023-02-10T17:00:22;6.70;99.90
52459;DHT22;38372;52.902;6.024;2023-02-10T17:02:48;6.70;99.90
52459;DHT22;38372;52.902;6.024;2023-02-10T17:05:15;6.70;99.90
52459;DHT22;38372;52.902;6.024;2023-02-10T17:07:41;6.70;99.90
52459;DHT22;38372;52.902;6.024;2023-02-10T17:10:13;6.70;99.90
52459;DHT22;38372;52.902;6.024;2023-02-10T17:12:40;6.70;99.90
52459;DHT22;38372;52.902;6.024;2023-02-10T17:15:06;6.70;99.90
52459;DHT22;38372;52.902;6.024;2023-02-10T17:17:33;6.70;99.90
52459;DHT22;38372;52.902;6.024;2023-02-10T17:19:59;6.70;99.90
52459;DHT22;38372;52.902;6.024;2023-02-10T17:22:25;6.70;99.90
52459;DHT22;38372;52.902;6.024;2023-02-10T17:24:50;6.70;99.90
52459;DHT22;38372;52.902;6.024;2023-02-10T17:27:16;6.80;99.90
52459;DHT22;38372;52.902;6.024;2023-02-10T17:29:42;6.80;99.90
52459;DHT22;38372;52.902;6.024;2023-02-10T17:32:08;6.80;99.90
52459;DHT22;38372;52.902;6.024;2023-02-10T17:34:34;6.80;99.90
52459;DHT22;38372;52.902;6.024;2023-02-10T17:37:04;6.80;99.90
52459;DHT22;38372;52.902;6.024;2023-02-10T17:39:31;6.80;99.90
52459;DHT22;38372;52.902;6.024;2023-02-10T17:42:05;6.80;99.90
52459;DHT22;38372;52.902;6.024;2023-02-10T17:44:31;6.80;99.90
52459;DHT22;38372;52.902;6.024;2023-02-10T17:46:58;6.80;99.90
52459;DHT22;38372;52.902;6.024;2023-02-10T17:49:26;6.80;99.90
52459;DHT22;38372;52.902;6.024;2023-02-10T17:51:53;6.80;99.90
52459;DHT22;38372;52.902;6.024;2023-02-10T17:54:18;6.80;99.90
52459;DHT22;38372;52.902;6.024;2023-02-10T17:56:45;6.80;99.90
52459;DHT22;38372;52.902;6.024;2023-02-10T17:59:11;6.80;99.90
52459;DHT22;38372;52.902;6.024;2023-02-10T18:01:38;6.80;99.90
52459;DHT22;38372;52.902;6.024;2023-02-10T18:04:05;6.70;99.90
52459;DHT22;38372;52.902;6.024;2023-02-10T18:06:31;6.70;99.90
52459;DHT22;38372;52.902;6.024;2023-02-10T18:08:58;6.70;99.90